Time,TemperatureF,DewpointF,PressureIn,WindDirection,WindDirectionDegrees,WindSpeedMPH,WindSpeedGustMPH,Humidity,HourlyPrecipIn,Conditions,Clouds,dailyrainin,SolarRadiationWatts/m^2,SoftwareType,DateUTC
2013-09-10 00:03:00,75.4,64.0,29.88,SSE,159,0.0,4.0,68,0.00,,,0.00,0,weatherlink.com 1.10,2013-09-10 05:03:00,
2013-09-10 00:18:00,75.1,64.0,29.88,SSE,159,1.0,1.0,68,0.00,,,0.00,0,weatherlink.com 1.10,2013-09-10 05:18:00,
2013-09-10 00:33:00,75.1,64.0,29.89,SSE,159,0.0,2.0,69,0.00,,,0.00,0,weatherlink.com 1.10,2013-09-10 05:33:00,
2013-09-10 00:48:00,74.5,64.0,29.89,SSE,159,0.0,2.0,69,0.00,,,0.00,0,weatherlink.com 1.10,2013-09-10 05:48:00,
2013-09-10 01:03:00,74.3,64.0,29.89,SSE,159,0.0,2.0,70,0.00,,,0.00,0,weatherlink.com 1.10,2013-09-10 06:03:00,
2013-09-10 01:18:00,74.3,64.0,29.89,SSE,159,0.0,5.0,70,0.00,,,0.00,0,weatherlink.com 1.10,2013-09-10 06:18:00,
2013-09-10 01:33:00,74.0,64.0,29.89,SSE,159,0.0,1.0,70,0.00,,,0.00,0,weatherlink.com 1.10,2013-09-10 06:33:00,
2013-09-10 01:48:00,73.9,64.0,29.89,SSE,159,0.0,1.0,71,0.00,,,0.00,0,weatherlink.com 1.10,2013-09-10 06:48:00,
2013-09-10 02:03:00,73.7,64.0,29.90,SSE,159,0.0,1.0,71,0.00,,,0.00,0,weatherlink.com 1.10,2013-09-10 07:03:00,
2013-09-10 02:19:00,73.6,64.0,29.90,SSE,159,0.0,2.0,71,0.00,,,0.00,0,weatherlink.com 1.10,2013-09-10 07:19:00,
2013-09-10 02:34:00,73.3,64.0,29.90,SSE,159,0.0,1.0,72,0.00,,,0.00,0,weatherlink.com 1.10,2013-09-10 07:34:00,
2013-09-10 02:49:00,73.2,64.0,29.90,SSE,159,1.0,2.0,72,0.00,,,0.00,0,weatherlink.com 1.10,2013-09-10 07:49:00,
2013-09-10 03:04:00,73.6,64.0,29.90,SSE,159,1.0,4.0,72,0.00,,,0.00,0,weatherlink.com 1.10,2013-09-10 08:04:00,
2013-09-10 03:19:00,73.4,64.0,29.90,SE,139,0.0,4.0,72,0.00,,,0.00,0,weatherlink.com 1.10,2013-09-10 08:19:00,
2013-09-10 03:34:00,73.3,64.0,29.91,SE,136,0.0,2.0,73,0.00,,,0.00,0,weatherlink.com 1.10,2013-09-10 08:34:00,
2013-09-10 03:49:00,73.2,64.0,29.91,SE,136,0.0,3.0,73,0.00,,,0.00,0,weatherlink.com 1.10,2013-09-10 08:49:00,
2013-09-10 04:04:00,73.2,64.0,29.91,SE,139,1.0,4.0,73,0.00,,,0.00,0,weatherlink.com 1.10,2013-09-10 09:04:00,
2013-09-10 04:19:00,72.9,64.0,29.91,SE,141,1.0,3.0,74,0.00,,,0.00,0,weatherlink.com 1.10,2013-09-10 09:19:00,
2013-09-10 04:34:00,72.3,64.0,29.91,SE,130,0.0,4.0,75,0.00,,,0.00,0,weatherlink.com 1.10,2013-09-10 09:34:00,
2013-09-10 04:49:00,72.0,64.0,29.91,SE,130,0.0,2.0,76,0.00,,,0.00,0,weatherlink.com 1.10,2013-09-10 09:49:00,
2013-09-10 05:04:00,72.0,64.0,29.92,SE,130,0.0,3.0,76,0.00,,,0.00,0,weatherlink.com 1.10,2013-09-10 10:04:00,
2013-09-10 05:19:00,71.8,64.0,29.92,SE,130,2.0,2.0,77,0.00,,,0.00,0,weatherlink.com 1.10,2013-09-10 10:19:00,
2013-09-10 05:34:00,71.9,64.0,29.92,South,177,1.0,5.0,77,0.00,,,0.00,0,weatherlink.com 1.10,2013-09-10 10:34:00,
2013-09-10 05:49:00,71.9,64.0,29.92,South,171,1.0,2.0,77,0.00,,,0.00,0,weatherlink.com 1.10,2013-09-10 10:49:00,
2013-09-10 06:04:00,72.2,64.0,29.93,South,173,1.0,6.0,75,0.00,,,0.00,0,weatherlink.com 1.10,2013-09-10 11:04:00,
2013-09-10 06:19:00,72.7,64.0,29.93,SSE,152,2.0,5.0,74,0.00,,,0.00,0,weatherlink.com 1.10,2013-09-10 11:19:00,
2013-09-10 06:34:00,72.9,64.0,29.94,SSE,159,2.0,8.0,74,0.00,,,0.00,0,weatherlink.com 1.10,2013-09-10 11:34:00,
2013-09-10 06:49:00,72.7,64.0,29.94,SSE,167,0.0,6.0,74,0.00,,,0.00,0,weatherlink.com 1.10,2013-09-10 11:49:00,
2013-09-10 07:04:00,72.1,64.0,29.95,SSE,165,0.0,5.0,75,0.00,,,0.00,7,weatherlink.com 1.10,2013-09-10 12:04:00,
2013-09-10 07:19:00,72.4,64.0,29.95,SSE,150,2.0,4.0,75,0.00,,,0.00,16,weatherlink.com 1.10,2013-09-10 12:19:00,
2013-09-10 07:34:00,72.5,64.0,29.96,SSE,150,1.0,2.0,75,0.00,,,0.00,25,weatherlink.com 1.10,2013-09-10 12:34:00,
2013-09-10 07:49:00,73.1,64.0,29.96,SE,127,1.0,2.0,74,0.00,,,0.00,37,weatherlink.com 1.10,2013-09-10 12:49:00,
2013-09-10 08:04:00,74.2,65.0,29.96,ESE,109,2.0,4.0,73,0.00,,,0.00,97,weatherlink.com 1.10,2013-09-10 13:04:00,
2013-09-10 08:19:00,75.7,66.0,29.97,SW,224,3.0,6.0,71,0.00,,,0.00,155,weatherlink.com 1.10,2013-09-10 13:19:00,
2013-09-10 08:34:00,78.3,66.0,29.97,SW,214,4.0,6.0,66,0.00,,,0.00,202,weatherlink.com 1.10,2013-09-10 13:34:00,
2013-09-10 08:49:00,79.7,66.0,29.97,SW,217,5.0,6.0,63,0.00,,,0.00,243,weatherlink.com 1.10,2013-09-10 13:49:00,
2013-09-10 09:04:00,80.7,66.0,29.98,SSW,209,3.0,7.0,62,0.00,,,0.00,287,weatherlink.com 1.10,2013-09-10 14:04:00,
2013-09-10 09:20:00,81.9,66.0,29.98,SW,218,4.0,7.0,59,0.00,,,0.00,329,weatherlink.com 1.10,2013-09-10 14:20:00,
2013-09-10 09:35:00,82.8,67.0,29.98,SSW,202,5.0,9.0,59,0.00,,,0.00,373,weatherlink.com 1.10,2013-09-10 14:35:00,
2013-09-10 09:50:00,83.9,67.0,29.99,WSW,248,6.0,9.0,57,0.00,,,0.00,415,weatherlink.com 1.10,2013-09-10 14:50:00,
2013-09-10 10:05:00,84.7,67.0,29.99,SSE,152,2.0,7.0,56,0.00,,,0.00,508,weatherlink.com 1.10,2013-09-10 15:05:00,
2013-09-10 10:20:00,85.3,67.0,29.98,SW,221,3.0,11.0,55,0.00,,,0.00,520,weatherlink.com 1.10,2013-09-10 15:20:00,
2013-09-10 10:35:00,86.3,68.0,29.98,SSW,208,6.0,11.0,54,0.00,,,0.00,529,weatherlink.com 1.10,2013-09-10 15:35:00,
2013-09-10 10:50:00,87.2,68.0,29.99,West,260,4.0,12.0,53,0.00,,,0.00,563,weatherlink.com 1.10,2013-09-10 15:50:00,
2013-09-10 11:05:00,88.0,68.0,29.98,SW,219,5.0,10.0,51,0.00,,,0.00,594,weatherlink.com 1.10,2013-09-10 16:05:00,
2013-09-10 11:35:00,89.8,69.0,29.98,South,188,3.0,9.0,50,0.00,,,0.00,645,weatherlink.com 1.10,2013-09-10 16:35:00,
2013-09-10 11:50:00,90.4,68.0,29.98,SSW,192,5.0,11.0,48,0.00,,,0.00,698,weatherlink.com 1.10,2013-09-10 16:50:00,
2013-09-10 12:05:00,90.9,69.0,29.98,SW,223,8.0,12.0,48,0.00,,,0.00,696,weatherlink.com 1.10,2013-09-10 17:05:00,
2013-09-10 12:20:00,91.7,69.0,29.98,SSE,168,3.0,9.0,47,0.00,,,0.00,719,weatherlink.com 1.10,2013-09-10 17:20:00,
2013-09-10 12:35:00,91.8,69.0,29.98,SE,137,2.0,13.0,47,0.00,,,0.00,731,weatherlink.com 1.10,2013-09-10 17:35:00,
2013-09-10 12:50:00,92.2,67.0,29.98,SW,218,5.0,13.0,44,0.00,,,0.00,761,weatherlink.com 1.10,2013-09-10 17:50:00,
2013-09-10 13:05:00,93.0,69.0,29.97,SSE,165,1.0,11.0,45,0.00,,,0.00,805,weatherlink.com 1.10,2013-09-10 18:05:00,
2013-09-10 13:20:00,91.9,68.0,29.97,South,186,4.0,13.0,45,0.00,,,0.00,854,weatherlink.com 1.10,2013-09-10 18:20:00,
2013-09-10 13:35:00,91.8,68.0,29.97,SSW,195,5.0,12.0,45,0.00,,,0.00,207,weatherlink.com 1.10,2013-09-10 18:35:00,
2013-09-10 13:50:00,93.3,68.0,29.96,SSE,149,9.0,12.0,43,0.00,,,0.00,791,weatherlink.com 1.10,2013-09-10 18:50:00,
2013-09-10 14:05:00,93.6,67.0,29.96,SE,133,4.0,13.0,42,0.00,,,0.00,788,weatherlink.com 1.10,2013-09-10 19:05:00,
2013-09-10 14:20:00,93.6,67.0,29.96,SE,146,7.0,12.0,42,0.00,,,0.00,777,weatherlink.com 1.10,2013-09-10 19:20:00,
2013-09-10 14:35:00,93.8,67.0,29.95,West,267,1.0,10.0,41,0.00,,,0.00,775,weatherlink.com 1.10,2013-09-10 19:35:00,
2013-09-10 14:50:00,93.3,66.0,29.95,NW,318,4.0,10.0,40,0.00,,,0.00,729,weatherlink.com 1.10,2013-09-10 19:50:00,
2013-09-10 15:06:00,93.8,67.0,29.94,SE,136,4.0,13.0,41,0.00,,,0.00,735,weatherlink.com 1.10,2013-09-10 20:06:00,
2013-09-10 15:21:00,94.0,66.0,29.94,SSW,207,3.0,12.0,40,0.00,,,0.00,158,weatherlink.com 1.10,2013-09-10 20:21:00,
2013-09-10 15:36:00,94.1,66.0,29.94,SSW,193,7.0,12.0,40,0.00,,,0.00,684,weatherlink.com 1.10,2013-09-10 20:36:00,
2013-09-10 15:51:00,94.3,67.0,29.94,East,97,7.0,12.0,41,0.00,,,0.00,686,weatherlink.com 1.10,2013-09-10 20:51:00,
2013-09-10 16:06:00,94.6,66.0,29.93,SSE,154,1.0,9.0,39,0.00,,,0.00,111,weatherlink.com 1.10,2013-09-10 21:06:00,
2013-09-10 16:21:00,93.1,65.0,29.93,South,176,3.0,12.0,40,0.00,,,0.00,635,weatherlink.com 1.10,2013-09-10 21:21:00,
2013-09-10 16:36:00,94.1,66.0,29.93,SSE,162,8.0,8.0,40,0.00,,,0.00,501,weatherlink.com 1.10,2013-09-10 21:36:00,
2013-09-10 16:51:00,94.1,65.0,29.92,West,266,4.0,10.0,38,0.00,,,0.00,480,weatherlink.com 1.10,2013-09-10 21:51:00,
2013-09-10 17:06:00,93.2,66.0,29.93,SSW,194,3.0,12.0,40,0.00,,,0.00,441,weatherlink.com 1.10,2013-09-10 22:06:00,
2013-09-10 17:21:00,93.5,66.0,29.93,WSW,240,8.0,11.0,40,0.00,,,0.00,374,weatherlink.com 1.10,2013-09-10 22:21:00,
2013-09-10 17:36:00,92.9,66.0,29.92,WSW,239,3.0,9.0,41,0.00,,,0.00,345,weatherlink.com 1.10,2013-09-10 22:36:00,
2013-09-10 17:51:00,92.8,66.0,29.92,SW,232,4.0,9.0,41,0.00,,,0.00,285,weatherlink.com 1.10,2013-09-10 22:51:00,
2013-09-10 18:06:00,92.0,66.0,29.92,SSW,207,4.0,8.0,42,0.00,,,0.00,236,weatherlink.com 1.10,2013-09-10 23:06:00,
2013-09-10 18:21:00,91.6,65.0,29.92,South,172,5.0,11.0,42,0.00,,,0.00,195,weatherlink.com 1.10,2013-09-10 23:21:00,
2013-09-10 18:36:00,90.8,65.0,29.93,SSE,157,3.0,8.0,43,0.00,,,0.00,39,weatherlink.com 1.10,2013-09-10 23:36:00,
2013-09-10 18:51:00,90.2,65.0,29.93,South,171,3.0,7.0,44,0.00,,,0.00,32,weatherlink.com 1.10,2013-09-10 23:51:00,
2013-09-10 19:06:00,89.3,65.0,29.93,South,170,2.0,6.0,45,0.00,,,0.00,23,weatherlink.com 1.10,2013-09-11 00:06:00,
2013-09-10 19:21:00,88.6,65.0,29.93,SSE,165,3.0,7.0,46,0.00,,,0.00,12,weatherlink.com 1.10,2013-09-11 00:21:00,
2013-09-10 19:36:00,87.8,66.0,29.93,SSE,159,1.0,5.0,48,0.00,,,0.00,0,weatherlink.com 1.10,2013-09-11 00:36:00,
2013-09-10 19:51:00,86.8,65.0,29.94,SSE,164,1.0,5.0,49,0.00,,,0.00,0,weatherlink.com 1.10,2013-09-11 00:51:00,
2013-09-10 20:06:00,85.3,66.0,29.94,SSE,164,0.0,3.0,52,0.00,,,0.00,0,weatherlink.com 1.10,2013-09-11 01:06:00,
2013-09-10 20:21:00,84.3,66.0,29.95,SSE,162,1.0,3.0,55,0.00,,,0.00,0,weatherlink.com 1.10,2013-09-11 01:21:00,
2013-09-10 20:36:00,83.2,66.0,29.95,SSE,162,0.0,2.0,57,0.00,,,0.00,0,weatherlink.com 1.10,2013-09-11 01:36:00,
2013-09-10 20:51:00,82.3,66.0,29.96,SSE,162,0.0,2.0,58,0.00,,,0.00,0,weatherlink.com 1.10,2013-09-11 01:51:00,
2013-09-10 21:06:00,81.9,66.0,29.97,SSE,162,0.0,2.0,59,0.00,,,0.00,0,weatherlink.com 1.10,2013-09-11 02:06:00,
2013-09-10 21:21:00,81.2,66.0,29.97,SSE,168,1.0,5.0,60,0.00,,,0.00,0,weatherlink.com 1.10,2013-09-11 02:21:00,
2013-09-10 21:36:00,81.2,65.0,29.98,SSE,158,0.0,7.0,59,0.00,,,0.00,0,weatherlink.com 1.10,2013-09-11 02:36:00,
2013-09-10 21:51:00,80.9,65.0,29.98,South,171,1.0,5.0,59,0.00,,,0.00,0,weatherlink.com 1.10,2013-09-11 02:51:00,
2013-09-10 22:06:00,80.4,65.0,29.99,South,182,0.0,4.0,59,0.00,,,0.00,0,weatherlink.com 1.10,2013-09-11 03:06:00,
2013-09-10 22:21:00,79.8,64.0,30.00,South,178,1.0,4.0,59,0.00,,,0.00,0,weatherlink.com 1.10,2013-09-11 03:21:00,
2013-09-10 22:36:00,78.9,64.0,30.00,South,178,1.0,3.0,61,0.00,,,0.00,0,weatherlink.com 1.10,2013-09-11 03:36:00,
2013-09-10 22:51:00,78.4,64.0,30.00,South,171,0.0,2.0,62,0.00,,,0.00,0,weatherlink.com 1.10,2013-09-11 03:51:00,
2013-09-10 23:06:00,77.5,64.0,30.01,South,171,0.0,2.0,63,0.00,,,0.00,0,weatherlink.com 1.10,2013-09-11 04:06:00,
2013-09-10 23:21:00,77.0,64.0,30.01,South,171,0.0,4.0,64,0.00,,,0.00,0,weatherlink.com 1.10,2013-09-11 04:21:00,
2013-09-10 23:36:00,76.6,64.0,30.01,South,171,0.0,3.0,65,0.00,,,0.00,0,weatherlink.com 1.10,2013-09-11 04:36:00,
2013-09-10 23:51:00,76.4,64.0,30.01,South,171,0.0,3.0,65,0.00,,,0.00,0,weatherlink.com 1.10,2013-09-11 04:51:00,